createdAt,value
2023-04-11T00:00:14.080Z,100139.06
2023-04-11T00:04:17.187Z,100149.50
2023-04-11T00:08:18.800Z,100169.97
2023-04-11T00:12:20.771Z,100164.44
2023-04-11T00:16:22.359Z,100151.97
2023-04-11T00:20:24.006Z,100170.63
2023-04-11T00:24:26.103Z,100173.16
2023-04-11T00:28:27.607Z,100161.06
2023-04-11T00:32:29.322Z,100173.03
2023-04-11T00:36:31.889Z,100180.44
2023-04-11T00:40:33.580Z,100149.78
2023-04-11T00:44:36.153Z,100159.34
2023-04-11T00:48:37.821Z,100140.19
2023-04-11T00:52:39.967Z,100167.66
2023-04-11T00:56:41.579Z,100140.75
2023-04-11T01:00:43.091Z,100140.25
2023-04-11T01:04:45.332Z,100167.94
2023-04-11T01:08:47.515Z,100192.94
2023-04-11T01:12:49.835Z,100195.50
2023-04-11T01:16:51.882Z,100196.31
2023-04-11T01:20:54.909Z,100185.22
2023-04-11T01:24:56.746Z,100194.00
2023-04-11T01:28:58.375Z,100205.16
2023-04-11T01:33:00.228Z,100206.66
2023-04-11T01:37:02.792Z,100194.53
2023-04-11T01:41:05.688Z,100185.84
2023-04-11T01:45:09.055Z,100180.66
2023-04-11T01:49:15.359Z,100182.41
2023-04-11T01:53:17.132Z,100174.63
2023-04-11T01:57:19.924Z,100168.50
2023-04-11T02:01:22.520Z,100186.53
2023-04-11T02:05:24.114Z,100184.84
2023-04-11T02:09:25.704Z,100180.88
2023-04-11T02:13:27.287Z,100181.66
2023-04-11T02:17:31.097Z,100176.28
2023-04-11T02:21:33.005Z,100176.09
2023-04-11T02:25:34.583Z,100172.50
2023-04-11T02:29:36.173Z,100176.78
2023-04-11T02:33:37.781Z,100179.47
2023-04-11T02:37:39.959Z,100174.31
2023-04-11T02:41:42.452Z,100193.34
2023-04-11T02:45:44.074Z,100197.78
2023-04-11T02:49:47.487Z,100212.22
2023-04-11T02:53:54.394Z,100206.03
2023-04-11T02:57:56.087Z,100203.41
2023-04-11T03:01:59.373Z,100200.84
2023-04-11T03:06:01.657Z,100205.38
2023-04-11T03:10:04.572Z,100210.75
2023-04-11T03:14:08.121Z,100215.69
2023-04-11T03:18:10.210Z,100221.69
2023-04-11T03:22:15.505Z,100227.44
2023-04-11T03:26:18.534Z,100238.31
2023-04-11T03:30:20.471Z,100247.44
2023-04-11T03:34:23.421Z,100246.56
2023-04-11T03:38:25.998Z,100251.03
2023-04-11T03:42:27.818Z,100252.53
2023-04-11T03:46:33.907Z,100235.16
2023-04-11T03:50:35.806Z,100258.34
2023-04-11T03:54:38.155Z,100242.19
2023-04-11T03:58:42.875Z,100242.28
2023-04-11T04:02:45.031Z,100237.88
2023-04-11T04:06:49.277Z,100250.59
2023-04-11T04:10:52.203Z,100233.53
2023-04-11T04:14:54.290Z,100224.13
2023-04-11T04:18:56.011Z,100239.50
2023-04-11T04:23:00.156Z,100235.00
2023-04-11T04:27:18.890Z,100225.56
2023-04-11T04:31:25.643Z,100249.50
2023-04-11T04:35:35.519Z,100265.00
2023-04-11T04:39:41.954Z,100247.94
2023-04-11T04:43:45.658Z,100237.50
2023-04-11T04:47:57.793Z,100233.88
2023-04-11T04:51:59.544Z,100240.59
2023-04-11T04:56:02.073Z,100260.91
2023-04-11T05:00:11.609Z,100269.53
2023-04-11T05:04:17.207Z,100296.31
2023-04-11T05:08:24.931Z,100273.03
2023-04-11T05:12:29.364Z,100298.69
2023-04-11T05:16:43.675Z,100303.75
2023-04-11T05:20:45.490Z,100314.97
2023-04-11T05:24:52.390Z,100325.34
2023-04-11T05:28:54.057Z,100316.78
2023-04-11T05:32:58.597Z,100319.22
2023-04-11T05:37:01.364Z,100331.94
2023-04-11T05:41:03.037Z,100332.63
2023-04-11T05:45:04.981Z,100346.19
2023-04-11T05:49:06.569Z,100349.69
2023-04-11T05:53:08.149Z,100360.72
2023-04-11T05:57:09.704Z,100359.94
2023-04-11T06:01:18.469Z,100360.97
2023-04-11T06:05:21.145Z,100371.38
2023-04-11T06:09:22.698Z,100374.81
2023-04-11T06:13:24.721Z,100382.34
2023-04-11T06:17:26.362Z,100389.13
2023-04-11T06:21:27.879Z,100391.53
2023-04-11T06:25:29.506Z,100384.75
2023-04-11T06:29:31.214Z,100395.66
2023-04-11T06:33:32.764Z,100398.94
2023-04-11T06:37:34.331Z,100412.34
2023-04-11T06:41:36.324Z,100422.38
2023-04-11T06:45:37.897Z,100417.50
2023-04-11T06:49:39.487Z,100434.75
2023-04-11T06:53:41.129Z,100435.16
2023-04-11T06:57:43.353Z,100445.00
2023-04-11T07:01:45.129Z,100447.81
2023-04-11T07:05:47.052Z,100464.09
2023-04-11T07:09:48.652Z,100451.28
2023-04-11T07:13:50.912Z,100455.72
2023-04-11T07:17:52.984Z,100469.22
2023-04-11T07:21:54.711Z,100469.50
2023-04-11T07:25:56.370Z,100470.38
2023-04-11T07:29:58.494Z,100471.66
2023-04-11T07:34:00.041Z,100461.72
2023-04-11T07:38:01.908Z,100473.22
2023-04-11T07:42:03.578Z,100469.84
2023-04-11T07:46:05.379Z,100479.66
2023-04-11T07:50:07.388Z,100488.22
2023-04-11T07:54:09.353Z,100483.63
2023-04-11T07:58:10.912Z,100483.44
2023-04-11T08:02:12.821Z,100484.47
2023-04-11T08:06:14.721Z,100493.16
2023-04-11T08:10:16.494Z,100486.06
2023-04-11T08:14:18.067Z,100476.16
2023-04-11T08:18:21.419Z,100481.66
2023-04-11T08:22:23.204Z,100476.09
2023-04-11T08:26:24.748Z,100466.19
2023-04-11T08:30:27.306Z,100470.78
2023-04-11T08:34:28.878Z,100490.53
2023-04-11T08:38:30.749Z,100487.03
2023-04-11T08:42:32.395Z,100495.66
2023-04-11T08:46:41.621Z,100491.56
2023-04-11T08:50:44.237Z,100496.25
2023-04-11T08:54:46.944Z,100484.41
2023-04-11T08:58:48.643Z,100482.91
2023-04-11T09:03:00.754Z,100486.00
2023-04-11T09:07:03.646Z,100473.38
2023-04-11T09:11:06.453Z,100475.22
2023-04-11T09:15:28.548Z,100475.72
2023-04-11T09:19:34.906Z,100450.91
2023-04-11T09:23:37.384Z,100467.16
2023-04-11T09:27:38.941Z,100469.78
2023-04-11T09:31:45.468Z,100453.44
2023-04-11T09:35:49.022Z,100484.50
2023-04-11T09:39:59.812Z,100480.69
2023-04-11T09:44:02.280Z,100487.53
2023-04-11T09:48:04.250Z,100481.25
2023-04-11T09:52:06.214Z,100475.53
2023-04-11T09:56:08.605Z,100469.78
2023-04-11T10:00:15.218Z,100467.41
2023-04-11T10:04:16.868Z,100475.66
2023-04-11T10:08:28.654Z,100483.66
2023-04-11T10:12:32.085Z,100481.81
2023-04-11T10:16:34.347Z,100470.41
2023-04-11T10:20:37.853Z,100471.72
2023-04-11T10:24:39.487Z,100456.50
2023-04-11T10:28:41.354Z,100475.59
2023-04-11T10:33:12.463Z,100473.50
2023-04-11T10:37:14.015Z,100469.50
2023-04-11T10:41:31.811Z,100486.97
2023-04-11T10:45:39.534Z,100470.16
2023-04-11T10:49:41.076Z,100463.13
2023-04-11T10:53:42.651Z,100485.28
2023-04-11T10:58:03.042Z,100482.97
2023-04-11T11:02:04.716Z,100493.19
2023-04-11T11:06:08.131Z,100493.31
2023-04-11T11:10:10.296Z,100484.22
2023-04-11T11:14:27.970Z,100480.44
2023-04-11T11:18:29.626Z,100488.72
2023-04-11T11:22:31.258Z,100486.03
2023-04-11T11:26:50.840Z,100474.13
2023-04-11T11:30:55.760Z,100468.31
2023-04-11T11:34:57.704Z,100463.91
2023-04-11T11:38:59.766Z,100469.34
2023-04-11T11:43:01.371Z,100468.06
2023-04-11T11:47:06.991Z,100466.13
2023-04-11T11:51:08.679Z,100471.34
2023-04-11T11:55:19.254Z,100484.22
2023-04-11T11:59:27.914Z,100488.47
2023-04-11T12:03:29.790Z,100485.28
2023-04-11T12:07:33.274Z,100483.09
2023-04-11T12:11:42.029Z,100491.84
2023-04-11T12:15:46.433Z,100479.59
2023-04-11T12:19:48.132Z,100478.00
2023-04-11T12:23:49.671Z,100476.38
2023-04-11T12:27:51.441Z,100464.47
2023-04-11T12:31:53.064Z,100458.00
2023-04-11T12:35:54.722Z,100461.00
2023-04-11T12:39:56.315Z,100468.00
2023-04-11T12:44:01.508Z,100468.91
2023-04-11T12:48:03.255Z,100451.13
2023-04-11T12:52:04.909Z,100447.84
2023-04-11T12:56:07.234Z,100444.78
2023-04-11T13:00:11.461Z,100445.16
2023-04-11T13:04:13.293Z,100439.84
2023-04-11T13:08:14.989Z,100442.38
2023-04-11T13:12:16.572Z,100434.06
2023-04-11T13:16:18.242Z,100428.19
2023-04-11T13:20:19.812Z,100433.28
2023-04-11T13:24:21.436Z,100423.09
2023-04-11T13:28:23.030Z,100419.28
2023-04-11T13:32:24.733Z,100415.22
2023-04-11T13:36:29.398Z,100418.81
2023-04-11T13:40:30.937Z,100405.31
2023-04-11T13:44:32.574Z,100423.28
2023-04-11T13:48:34.600Z,100413.72
2023-04-11T13:52:36.206Z,100424.03
2023-04-11T13:56:38.105Z,100430.00
2023-04-11T14:00:40.121Z,100428.34
2023-04-11T14:04:41.965Z,100437.91
2023-04-11T14:08:43.741Z,100423.50
2023-04-11T14:12:45.312Z,100431.06
2023-04-11T14:16:47.022Z,100439.97
2023-04-11T14:20:48.766Z,100438.75
2023-04-11T14:24:50.381Z,100448.13
2023-04-11T14:28:52.569Z,100438.53
2023-04-11T14:32:54.257Z,100441.59
2023-04-11T14:36:57.954Z,100430.03
2023-04-11T14:40:59.656Z,100422.44
2023-04-11T14:45:01.221Z,100422.97
2023-04-11T14:49:02.840Z,100434.16
2023-04-11T14:53:04.482Z,100425.75
2023-04-11T14:57:06.041Z,100426.56
2023-04-11T15:01:07.731Z,100427.31
2023-04-11T15:05:09.842Z,100416.72
2023-04-11T15:09:11.352Z,100405.94
2023-04-11T15:13:13.019Z,100412.00
2023-04-11T15:17:14.528Z,100406.22
2023-04-11T15:21:16.436Z,100396.47
2023-04-11T15:25:18.040Z,100403.44
2023-04-11T15:29:19.835Z,100397.06
2023-04-11T15:33:24.645Z,100389.16
2023-04-11T15:37:27.106Z,100391.56
2023-04-11T15:41:28.728Z,100394.59
2023-04-11T15:45:30.648Z,100406.97
2023-04-11T15:49:32.283Z,100394.75
2023-04-11T15:53:33.849Z,100393.13
2023-04-11T15:57:35.936Z,100399.06
2023-04-11T16:01:38.340Z,100390.50
2023-04-11T16:05:42.884Z,100384.63
2023-04-11T16:09:44.894Z,100379.56
2023-04-11T16:13:46.488Z,100392.34
2023-04-11T16:17:48.191Z,100382.69
2023-04-11T16:21:49.891Z,100381.88
2023-04-11T16:25:51.483Z,100381.88
2023-04-11T16:29:54.702Z,100386.13
2023-04-11T16:33:56.420Z,100389.47
2023-04-11T16:37:58.149Z,100384.41
2023-04-11T16:41:59.768Z,100370.63
2023-04-11T16:46:01.437Z,100377.44
2023-04-11T16:50:03.809Z,100368.75
2023-04-11T16:54:09.657Z,100362.72
2023-04-11T16:58:11.816Z,100362.63
2023-04-11T17:02:13.480Z,100365.03
2023-04-11T17:06:16.484Z,100357.28
2023-04-11T17:10:18.051Z,100351.78
2023-04-11T17:14:19.748Z,100351.56
2023-04-11T17:18:21.335Z,100353.09
2023-04-11T17:22:23.258Z,100357.16
2023-04-11T17:26:24.843Z,100365.69
2023-04-11T17:30:27.799Z,100358.66
2023-04-11T17:34:29.420Z,100364.50
2023-04-11T17:38:31.841Z,100363.53
2023-04-11T17:42:33.374Z,100358.22
2023-04-11T17:46:35.008Z,100361.31
2023-04-11T17:50:37.680Z,100363.50
2023-04-11T17:54:39.892Z,100362.41
2023-04-11T17:58:44.692Z,100359.72
2023-04-11T18:02:48.261Z,100370.81
2023-04-11T18:06:50.016Z,100380.06
2023-04-11T18:10:51.608Z,100365.13
2023-04-11T18:14:54.235Z,100375.25
2023-04-11T18:18:55.905Z,100377.72
2023-04-11T18:22:57.542Z,100365.78
2023-04-11T18:26:59.082Z,100376.72
2023-04-11T18:31:01.622Z,100377.69
2023-04-11T18:35:05.101Z,100381.41
2023-04-11T18:39:07.594Z,100380.59
2023-04-11T18:43:09.280Z,100360.09
2023-04-11T18:47:16.755Z,100359.22
2023-04-11T18:51:19.541Z,100360.94
2023-04-11T18:55:21.213Z,100372.81
2023-04-11T18:59:26.724Z,100378.44
2023-04-11T19:03:31.554Z,100371.94
2023-04-11T19:07:33.976Z,100373.47
2023-04-11T19:11:38.102Z,100364.66
2023-04-11T19:15:41.454Z,100362.88
2023-04-11T19:19:43.346Z,100361.91
2023-04-11T19:23:44.915Z,100356.59
2023-04-11T19:27:47.072Z,100359.09
2023-04-11T19:31:48.701Z,100354.16
2023-04-11T19:35:50.479Z,100354.34
2023-04-11T19:39:52.025Z,100352.81
2023-04-11T19:43:53.651Z,100356.97
2023-04-11T19:47:55.335Z,100339.69
2023-04-11T19:51:57.039Z,100331.81
2023-04-11T19:55:59.586Z,100322.41
2023-04-11T20:00:01.464Z,100319.19
2023-04-11T20:04:03.369Z,100323.66
2023-04-11T20:08:05.112Z,100319.53
2023-04-11T20:12:07.124Z,100300.00
2023-04-11T20:16:09.019Z,100293.31
2023-04-11T20:20:12.217Z,100300.19
2023-04-11T20:24:15.372Z,100279.66
2023-04-11T20:28:17.052Z,100279.66
2023-04-11T20:32:18.741Z,100275.38
2023-04-11T20:36:20.436Z,100269.38
2023-04-11T20:40:22.269Z,100254.81
2023-04-11T20:44:25.973Z,100245.31
2023-04-11T20:48:29.613Z,100244.31
2023-04-11T20:52:32.626Z,100241.66
2023-04-11T20:56:35.422Z,100240.81
2023-04-11T21:00:39.242Z,100237.31
2023-04-11T21:04:42.189Z,100226.91
2023-04-11T21:08:43.877Z,100218.22
2023-04-11T21:12:51.096Z,100213.06
2023-04-11T21:16:52.768Z,100207.06
2023-04-11T21:20:54.354Z,100202.72
2023-04-11T21:24:55.920Z,100194.09
2023-04-11T21:28:57.456Z,100191.47
2023-04-11T21:32:59.247Z,100185.34
2023-04-11T21:37:01.166Z,100174.91
2023-04-11T21:41:02.866Z,100178.25
2023-04-11T21:45:04.864Z,100175.41
2023-04-11T21:49:06.451Z,100167.38
2023-04-11T21:53:08.069Z,100163.81
2023-04-11T21:57:09.802Z,100155.09
2023-04-11T22:01:11.663Z,100161.00
2023-04-11T22:05:13.658Z,100139.59
2023-04-11T22:09:18.028Z,100132.59
2023-04-11T22:13:19.817Z,100135.88
2023-04-11T22:17:22.239Z,100135.75
2023-04-11T22:21:26.271Z,100119.41
2023-04-11T22:25:27.837Z,100109.19
2023-04-11T22:29:30.192Z,100100.66
2023-04-11T22:33:32.150Z,100100.66
2023-04-11T22:37:33.712Z,100091.25
2023-04-11T22:41:38.288Z,100091.97
2023-04-11T22:45:40.009Z,100099.72
2023-04-11T22:49:42.610Z,100092.13
2023-04-11T22:53:48.113Z,100085.31
2023-04-11T22:57:49.707Z,100069.06
2023-04-11T23:01:51.650Z,100071.69
2023-04-11T23:05:53.382Z,100070.78
2023-04-11T23:09:56.200Z,100064.78
2023-04-11T23:13:58.044Z,100056.88
2023-04-11T23:17:59.821Z,100051.75
2023-04-11T23:22:01.333Z,100061.25
2023-04-11T23:26:03.587Z,100061.41
2023-04-11T23:30:05.887Z,100056.47
2023-04-11T23:34:07.502Z,100058.34
2023-04-11T23:38:10.516Z,100055.78
2023-04-11T23:42:12.251Z,100051.34
2023-04-11T23:46:13.891Z,100053.16
2023-04-11T23:50:15.662Z,100035.31
2023-04-11T23:54:17.196Z,100031.94
2023-04-11T23:58:18.783Z,100032.84
